sensor_id;sensor_type;location;lat;lon;timestamp;P1;durP1;ratioP1;P2;durP2;ratioP2
45049;SDS011;61798;48.048;-1.928;2022-09-09T00:00:36;15.63;;;4.03;;
45049;SDS011;61798;48.048;-1.928;2022-09-09T00:03:30;12.88;;;2.55;;
45049;SDS011;61798;48.048;-1.928;2022-09-09T00:05:51;16.05;;;3.80;;
45049;SDS011;61798;48.048;-1.928;2022-09-09T00:08:01;15.55;;;3.28;;
45049;SDS011;61798;48.048;-1.928;2022-09-09T00:12:32;18.13;;;3.78;;
45049;SDS011;61798;48.048;-1.928;2022-09-09T00:17:08;19.30;;;3.35;;
45049;SDS011;61798;48.048;-1.928;2022-09-09T00:19:53;21.55;;;3.42;;
45049;SDS011;61798;48.048;-1.928;2022-09-09T00:22:18;17.45;;;3.20;;
45049;SDS011;61798;48.048;-1.928;2022-09-09T00:24:28;12.77;;;2.95;;
45049;SDS011;61798;48.048;-1.928;2022-09-09T00:26:51;13.80;;;3.20;;
45049;SDS011;61798;48.048;-1.928;2022-09-09T00:31:30;16.13;;;3.03;;
45049;SDS011;61798;48.048;-1.928;2022-09-09T00:33:38;15.23;;;3.30;;
45049;SDS011;61798;48.048;-1.928;2022-09-09T00:35:54;10.45;;;3.08;;
45049;SDS011;61798;48.048;-1.928;2022-09-09T00:38:15;13.27;;;2.95;;
45049;SDS011;61798;48.048;-1.928;2022-09-09T00:44:03;18.38;;;3.17;;
45049;SDS011;61798;48.048;-1.928;2022-09-09T00:46:38;15.43;;;2.90;;
45049;SDS011;61798;48.048;-1.928;2022-09-09T00:49:28;19.77;;;3.13;;
45049;SDS011;61798;48.048;-1.928;2022-09-09T00:54:13;17.90;;;2.67;;
45049;SDS011;61798;48.048;-1.928;2022-09-09T00:56:37;10.88;;;2.92;;
45049;SDS011;61798;48.048;-1.928;2022-09-09T00:58:52;15.70;;;3.63;;
45049;SDS011;61798;48.048;-1.928;2022-09-09T01:01:21;15.55;;;3.03;;
45049;SDS011;61798;48.048;-1.928;2022-09-09T01:06:14;19.92;;;3.17;;
45049;SDS011;61798;48.048;-1.928;2022-09-09T01:16:48;15.80;;;3.35;;
45049;SDS011;61798;48.048;-1.928;2022-09-09T01:18:57;13.73;;;3.10;;
45049;SDS011;61798;48.048;-1.928;2022-09-09T01:21:27;15.43;;;3.08;;
45049;SDS011;61798;48.048;-1.928;2022-09-09T01:26:24;14.82;;;3.10;;
45049;SDS011;61798;48.048;-1.928;2022-09-09T01:28:48;18.73;;;3.50;;
45049;SDS011;61798;48.048;-1.928;2022-09-09T01:30:59;15.73;;;3.20;;
45049;SDS011;61798;48.048;-1.928;2022-09-09T01:33:09;20.25;;;3.67;;
45049;SDS011;61798;48.048;-1.928;2022-09-09T01:38:07;19.27;;;3.00;;
45049;SDS011;61798;48.048;-1.928;2022-09-09T01:40:15;11.18;;;2.83;;
45049;SDS011;61798;48.048;-1.928;2022-09-09T01:42:23;12.75;;;2.70;;
45049;SDS011;61798;48.048;-1.928;2022-09-09T01:44:30;18.38;;;3.58;;
45049;SDS011;61798;48.048;-1.928;2022-09-09T01:46:38;16.30;;;2.97;;
45049;SDS011;61798;48.048;-1.928;2022-09-09T01:48:45;15.35;;;2.50;;
45049;SDS011;61798;48.048;-1.928;2022-09-09T01:50:53;19.38;;;3.10;;
45049;SDS011;61798;48.048;-1.928;2022-09-09T01:53:00;15.80;;;2.75;;
45049;SDS011;61798;48.048;-1.928;2022-09-09T01:55:09;15.27;;;2.55;;
45049;SDS011;61798;48.048;-1.928;2022-09-09T01:57:22;14.35;;;2.72;;
45049;SDS011;61798;48.048;-1.928;2022-09-09T02:00:07;11.23;;;2.45;;
45049;SDS011;61798;48.048;-1.928;2022-09-09T02:02:27;12.25;;;2.42;;
45049;SDS011;61798;48.048;-1.928;2022-09-09T02:04:40;11.45;;;2.50;;
45049;SDS011;61798;48.048;-1.928;2022-09-09T02:06:55;13.68;;;2.03;;
45049;SDS011;61798;48.048;-1.928;2022-09-09T02:09:05;10.32;;;2.55;;
45049;SDS011;61798;48.048;-1.928;2022-09-09T02:13:22;14.45;;;2.85;;
45049;SDS011;61798;48.048;-1.928;2022-09-09T02:15:40;13.02;;;2.00;;
45049;SDS011;61798;48.048;-1.928;2022-09-09T02:17:54;12.35;;;2.17;;
45049;SDS011;61798;48.048;-1.928;2022-09-09T02:20:05;11.23;;;2.42;;
45049;SDS011;61798;48.048;-1.928;2022-09-09T02:22:16;9.32;;;2.03;;
45049;SDS011;61798;48.048;-1.928;2022-09-09T02:24:27;15.98;;;2.47;;
45049;SDS011;61798;48.048;-1.928;2022-09-09T02:26:37;12.80;;;2.38;;
45049;SDS011;61798;48.048;-1.928;2022-09-09T02:28:48;11.73;;;2.13;;
45049;SDS011;61798;48.048;-1.928;2022-09-09T02:30:57;13.13;;;2.63;;
45049;SDS011;61798;48.048;-1.928;2022-09-09T02:33:05;11.80;;;2.22;;
45049;SDS011;61798;48.048;-1.928;2022-09-09T02:35:17;15.25;;;2.67;;
45049;SDS011;61798;48.048;-1.928;2022-09-09T02:37:28;11.50;;;2.15;;
45049;SDS011;61798;48.048;-1.928;2022-09-09T02:39:44;10.00;;;2.25;;
45049;SDS011;61798;48.048;-1.928;2022-09-09T02:41:51;15.45;;;2.47;;
45049;SDS011;61798;48.048;-1.928;2022-09-09T02:43:59;9.77;;;2.22;;
45049;SDS011;61798;48.048;-1.928;2022-09-09T02:53:40;15.68;;;2.42;;
45049;SDS011;61798;48.048;-1.928;2022-09-09T02:55:58;13.07;;;2.05;;
45049;SDS011;61798;48.048;-1.928;2022-09-09T02:58:07;12.82;;;2.20;;
45049;SDS011;61798;48.048;-1.928;2022-09-09T03:00:22;12.73;;;1.98;;
45049;SDS011;61798;48.048;-1.928;2022-09-09T03:02:32;15.80;;;2.47;;
45049;SDS011;61798;48.048;-1.928;2022-09-09T03:04:40;18.50;;;2.50;;
45049;SDS011;61798;48.048;-1.928;2022-09-09T03:06:50;12.55;;;2.42;;
45049;SDS011;61798;48.048;-1.928;2022-09-09T03:08:57;13.88;;;2.67;;
45049;SDS011;61798;48.048;-1.928;2022-09-09T03:11:07;21.88;;;2.33;;
45049;SDS011;61798;48.048;-1.928;2022-09-09T03:13:16;10.48;;;2.33;;
45049;SDS011;61798;48.048;-1.928;2022-09-09T03:15:25;15.02;;;2.38;;
45049;SDS011;61798;48.048;-1.928;2022-09-09T03:17:36;10.55;;;2.33;;
45049;SDS011;61798;48.048;-1.928;2022-09-09T03:19:43;9.13;;;2.30;;
45049;SDS011;61798;48.048;-1.928;2022-09-09T03:21:51;11.80;;;2.50;;
45049;SDS011;61798;48.048;-1.928;2022-09-09T03:23:58;14.75;;;2.72;;
45049;SDS011;61798;48.048;-1.928;2022-09-09T03:26:05;13.63;;;2.63;;
45049;SDS011;61798;48.048;-1.928;2022-09-09T03:28:12;14.73;;;2.83;;
45049;SDS011;61798;48.048;-1.928;2022-09-09T03:30:23;15.88;;;2.15;;
45049;SDS011;61798;48.048;-1.928;2022-09-09T03:32:31;9.95;;;2.33;;
45049;SDS011;61798;48.048;-1.928;2022-09-09T03:34:38;10.73;;;2.00;;
45049;SDS011;61798;48.048;-1.928;2022-09-09T03:36:49;11.52;;;2.05;;
45049;SDS011;61798;48.048;-1.928;2022-09-09T03:38:58;10.60;;;1.90;;
45049;SDS011;61798;48.048;-1.928;2022-09-09T03:41:04;16.38;;;2.40;;
45049;SDS011;61798;48.048;-1.928;2022-09-09T03:43:14;12.98;;;2.88;;
45049;SDS011;61798;48.048;-1.928;2022-09-09T03:45:23;9.32;;;2.05;;
45049;SDS011;61798;48.048;-1.928;2022-09-09T03:47:30;13.13;;;2.92;;
45049;SDS011;61798;48.048;-1.928;2022-09-09T03:49:38;10.25;;;2.13;;
45049;SDS011;61798;48.048;-1.928;2022-09-09T03:51:45;12.75;;;2.30;;
45049;SDS011;61798;48.048;-1.928;2022-09-09T03:53:52;13.93;;;2.35;;
45049;SDS011;61798;48.048;-1.928;2022-09-09T03:56:02;14.02;;;2.95;;
45049;SDS011;61798;48.048;-1.928;2022-09-09T03:58:09;12.80;;;2.35;;
45049;SDS011;61798;48.048;-1.928;2022-09-09T04:00:17;7.80;;;1.92;;
45049;SDS011;61798;48.048;-1.928;2022-09-09T04:02:24;13.32;;;2.30;;
45049;SDS011;61798;48.048;-1.928;2022-09-09T04:04:31;14.55;;;2.60;;
45049;SDS011;61798;48.048;-1.928;2022-09-09T04:06:38;13.00;;;2.30;;
45049;SDS011;61798;48.048;-1.928;2022-09-09T04:08:44;15.55;;;2.83;;
45049;SDS011;61798;48.048;-1.928;2022-09-09T04:10:55;16.63;;;2.58;;
45049;SDS011;61798;48.048;-1.928;2022-09-09T04:13:04;9.48;;;1.98;;
45049;SDS011;61798;48.048;-1.928;2022-09-09T04:15:11;9.68;;;2.05;;
45049;SDS011;61798;48.048;-1.928;2022-09-09T04:17:19;15.45;;;2.47;;
45049;SDS011;61798;48.048;-1.928;2022-09-09T04:19:26;10.68;;;2.92;;
45049;SDS011;61798;48.048;-1.928;2022-09-09T04:21:33;14.50;;;2.65;;
45049;SDS011;61798;48.048;-1.928;2022-09-09T04:23:40;13.02;;;2.30;;
45049;SDS011;61798;48.048;-1.928;2022-09-09T04:25:48;9.95;;;2.20;;
45049;SDS011;61798;48.048;-1.928;2022-09-09T04:28:00;10.88;;;2.20;;
45049;SDS011;61798;48.048;-1.928;2022-09-09T04:30:07;11.65;;;2.10;;
45049;SDS011;61798;48.048;-1.928;2022-09-09T04:32:15;16.98;;;2.65;;
45049;SDS011;61798;48.048;-1.928;2022-09-09T04:34:22;14.68;;;2.20;;
45049;SDS011;61798;48.048;-1.928;2022-09-09T04:36:30;8.80;;;2.20;;
45049;SDS011;61798;48.048;-1.928;2022-09-09T04:38:38;12.60;;;2.33;;
45049;SDS011;61798;48.048;-1.928;2022-09-09T04:40:50;16.23;;;3.67;;
45049;SDS011;61798;48.048;-1.928;2022-09-09T04:42:59;14.82;;;2.80;;
45049;SDS011;61798;48.048;-1.928;2022-09-09T04:45:06;11.18;;;2.72;;
45049;SDS011;61798;48.048;-1.928;2022-09-09T04:47:17;19.35;;;3.67;;
45049;SDS011;61798;48.048;-1.928;2022-09-09T04:49:24;11.45;;;3.25;;
45049;SDS011;61798;48.048;-1.928;2022-09-09T04:51:32;15.48;;;2.83;;
45049;SDS011;61798;48.048;-1.928;2022-09-09T04:53:39;17.42;;;3.80;;
45049;SDS011;61798;48.048;-1.928;2022-09-09T04:55:45;13.25;;;2.40;;
45049;SDS011;61798;48.048;-1.928;2022-09-09T04:57:53;15.82;;;3.03;;
45049;SDS011;61798;48.048;-1.928;2022-09-09T05:00:00;8.70;;;2.13;;
45049;SDS011;61798;48.048;-1.928;2022-09-09T05:02:07;13.68;;;2.70;;
45049;SDS011;61798;48.048;-1.928;2022-09-09T05:04:14;15.02;;;2.60;;
45049;SDS011;61798;48.048;-1.928;2022-09-09T05:06:22;14.57;;;2.42;;
45049;SDS011;61798;48.048;-1.928;2022-09-09T05:08:29;12.00;;;2.70;;
45049;SDS011;61798;48.048;-1.928;2022-09-09T05:10:37;14.55;;;2.85;;
45049;SDS011;61798;48.048;-1.928;2022-09-09T05:12:51;15.45;;;2.63;;
45049;SDS011;61798;48.048;-1.928;2022-09-09T05:15:00;16.60;;;3.15;;
45049;SDS011;61798;48.048;-1.928;2022-09-09T05:17:06;14.55;;;2.58;;
45049;SDS011;61798;48.048;-1.928;2022-09-09T05:19:12;15.98;;;2.70;;
45049;SDS011;61798;48.048;-1.928;2022-09-09T05:21:18;14.60;;;3.15;;
45049;SDS011;61798;48.048;-1.928;2022-09-09T05:23:26;15.23;;;3.05;;
45049;SDS011;61798;48.048;-1.928;2022-09-09T05:25:34;17.73;;;3.30;;
45049;SDS011;61798;48.048;-1.928;2022-09-09T05:27:39;18.90;;;2.35;;
45049;SDS011;61798;48.048;-1.928;2022-09-09T05:29:46;16.00;;;2.47;;
45049;SDS011;61798;48.048;-1.928;2022-09-09T05:31:54;15.70;;;3.03;;
45049;SDS011;61798;48.048;-1.928;2022-09-09T05:34:00;15.85;;;3.00;;
45049;SDS011;61798;48.048;-1.928;2022-09-09T05:36:07;15.77;;;2.80;;
45049;SDS011;61798;48.048;-1.928;2022-09-09T05:38:18;20.05;;;3.58;;
45049;SDS011;61798;48.048;-1.928;2022-09-09T05:40:33;17.05;;;2.78;;
45049;SDS011;61798;48.048;-1.928;2022-09-09T05:42:40;17.23;;;2.63;;
45049;SDS011;61798;48.048;-1.928;2022-09-09T05:44:50;10.50;;;2.90;;
45049;SDS011;61798;48.048;-1.928;2022-09-09T05:47:00;20.23;;;3.22;;
45049;SDS011;61798;48.048;-1.928;2022-09-09T05:49:22;14.30;;;2.58;;
45049;SDS011;61798;48.048;-1.928;2022-09-09T05:51:30;15.82;;;2.47;;
45049;SDS011;61798;48.048;-1.928;2022-09-09T05:53:36;20.02;;;3.20;;
45049;SDS011;61798;48.048;-1.928;2022-09-09T05:55:46;16.95;;;2.60;;
45049;SDS011;61798;48.048;-1.928;2022-09-09T05:57:55;10.50;;;2.40;;
45049;SDS011;61798;48.048;-1.928;2022-09-09T06:00:03;14.55;;;2.58;;
45049;SDS011;61798;48.048;-1.928;2022-09-09T06:02:13;14.95;;;2.67;;
45049;SDS011;61798;48.048;-1.928;2022-09-09T06:04:21;25.05;;;3.20;;
45049;SDS011;61798;48.048;-1.928;2022-09-09T06:06:33;13.05;;;2.47;;
45049;SDS011;61798;48.048;-1.928;2022-09-09T06:08:44;17.48;;;3.40;;
45049;SDS011;61798;48.048;-1.928;2022-09-09T06:10:52;15.88;;;2.75;;
45049;SDS011;61798;48.048;-1.928;2022-09-09T06:12:59;15.45;;;2.80;;
45049;SDS011;61798;48.048;-1.928;2022-09-09T06:15:05;18.02;;;3.67;;
45049;SDS011;61798;48.048;-1.928;2022-09-09T06:17:16;16.75;;;3.25;;
45049;SDS011;61798;48.048;-1.928;2022-09-09T06:19:22;12.30;;;2.75;;
45049;SDS011;61798;48.048;-1.928;2022-09-09T06:21:35;13.25;;;3.10;;
45049;SDS011;61798;48.048;-1.928;2022-09-09T06:23:51;15.95;;;2.95;;
45049;SDS011;61798;48.048;-1.928;2022-09-09T06:26:07;12.27;;;2.50;;
45049;SDS011;61798;48.048;-1.928;2022-09-09T06:28:25;21.45;;;3.35;;
45049;SDS011;61798;48.048;-1.928;2022-09-09T06:30:33;16.85;;;4.38;;
45049;SDS011;61798;48.048;-1.928;2022-09-09T06:32:41;15.52;;;3.08;;
45049;SDS011;61798;48.048;-1.928;2022-09-09T06:34:51;12.68;;;2.88;;
45049;SDS011;61798;48.048;-1.928;2022-09-09T06:37:07;19.05;;;2.65;;
45049;SDS011;61798;48.048;-1.928;2022-09-09T06:39:17;17.35;;;2.58;;
45049;SDS011;61798;48.048;-1.928;2022-09-09T06:41:27;16.02;;;3.08;;
45049;SDS011;61798;48.048;-1.928;2022-09-09T06:43:44;17.13;;;2.60;;
45049;SDS011;61798;48.048;-1.928;2022-09-09T06:46:10;10.35;;;2.72;;
45049;SDS011;61798;48.048;-1.928;2022-09-09T06:48:27;15.45;;;2.85;;
45049;SDS011;61798;48.048;-1.928;2022-09-09T06:50:43;22.42;;;3.28;;
45049;SDS011;61798;48.048;-1.928;2022-09-09T06:52:56;13.85;;;2.60;;
45049;SDS011;61798;48.048;-1.928;2022-09-09T06:55:17;12.48;;;2.28;;
45049;SDS011;61798;48.048;-1.928;2022-09-09T06:57:34;11.88;;;2.30;;
45049;SDS011;61798;48.048;-1.928;2022-09-09T06:59:57;11.25;;;2.33;;
45049;SDS011;61798;48.048;-1.928;2022-09-09T07:02:20;8.38;;;1.95;;
45049;SDS011;61798;48.048;-1.928;2022-09-09T07:04:42;13.27;;;2.60;;
45049;SDS011;61798;48.048;-1.928;2022-09-09T07:06:53;14.27;;;2.38;;
45049;SDS011;61798;48.048;-1.928;2022-09-09T07:09:00;13.02;;;2.58;;
45049;SDS011;61798;48.048;-1.928;2022-09-09T07:11:11;13.23;;;2.25;;
45049;SDS011;61798;48.048;-1.928;2022-09-09T07:13:27;14.82;;;2.80;;
45049;SDS011;61798;48.048;-1.928;2022-09-09T07:15:43;12.00;;;2.50;;
45049;SDS011;61798;48.048;-1.928;2022-09-09T07:17:50;17.55;;;2.67;;
45049;SDS011;61798;48.048;-1.928;2022-09-09T07:20:02;13.40;;;2.95;;
45049;SDS011;61798;48.048;-1.928;2022-09-09T07:22:09;16.20;;;2.80;;
45049;SDS011;61798;48.048;-1.928;2022-09-09T07:24:16;9.48;;;2.47;;
45049;SDS011;61798;48.048;-1.928;2022-09-09T07:26:23;13.45;;;2.75;;
45049;SDS011;61798;48.048;-1.928;2022-09-09T07:28:30;13.82;;;2.35;;
45049;SDS011;61798;48.048;-1.928;2022-09-09T07:30:36;12.48;;;2.70;;
45049;SDS011;61798;48.048;-1.928;2022-09-09T07:32:42;12.05;;;2.20;;
45049;SDS011;61798;48.048;-1.928;2022-09-09T07:34:48;15.25;;;3.08;;
45049;SDS011;61798;48.048;-1.928;2022-09-09T07:36:55;12.27;;;2.92;;
45049;SDS011;61798;48.048;-1.928;2022-09-09T07:39:04;11.85;;;2.50;;
45049;SDS011;61798;48.048;-1.928;2022-09-09T07:41:15;17.48;;;2.83;;
45049;SDS011;61798;48.048;-1.928;2022-09-09T07:43:25;12.98;;;2.50;;
45049;SDS011;61798;48.048;-1.928;2022-09-09T07:45:33;15.68;;;2.47;;
45049;SDS011;61798;48.048;-1.928;2022-09-09T07:47:41;11.40;;;2.65;;
45049;SDS011;61798;48.048;-1.928;2022-09-09T07:49:49;14.32;;;2.95;;
45049;SDS011;61798;48.048;-1.928;2022-09-09T07:51:56;13.52;;;2.30;;
45049;SDS011;61798;48.048;-1.928;2022-09-09T07:54:04;11.23;;;2.55;;
45049;SDS011;61798;48.048;-1.928;2022-09-09T07:56:16;14.07;;;2.43;;
45049;SDS011;61798;48.048;-1.928;2022-09-09T07:58:24;11.55;;;2.30;;
45049;SDS011;61798;48.048;-1.928;2022-09-09T08:00:32;10.93;;;2.17;;
45049;SDS011;61798;48.048;-1.928;2022-09-09T08:02:38;11.25;;;2.38;;
45049;SDS011;61798;48.048;-1.928;2022-09-09T08:04:44;11.73;;;2.50;;
45049;SDS011;61798;48.048;-1.928;2022-09-09T08:06:55;12.57;;;2.42;;
45049;SDS011;61798;48.048;-1.928;2022-09-09T08:09:03;10.95;;;2.30;;
45049;SDS011;61798;48.048;-1.928;2022-09-09T08:11:12;11.05;;;2.40;;
45049;SDS011;61798;48.048;-1.928;2022-09-09T08:13:22;13.75;;;2.30;;
45049;SDS011;61798;48.048;-1.928;2022-09-09T08:15:30;14.07;;;2.97;;
45049;SDS011;61798;48.048;-1.928;2022-09-09T08:17:38;13.55;;;2.55;;
45049;SDS011;61798;48.048;-1.928;2022-09-09T08:19:46;16.23;;;2.58;;
45049;SDS011;61798;48.048;-1.928;2022-09-09T08:21:53;12.65;;;2.30;;
45049;SDS011;61798;48.048;-1.928;2022-09-09T08:24:00;12.82;;;2.38;;
45049;SDS011;61798;48.048;-1.928;2022-09-09T08:26:18;12.75;;;2.60;;
45049;SDS011;61798;48.048;-1.928;2022-09-09T08:28:30;7.90;;;1.85;;
45049;SDS011;61798;48.048;-1.928;2022-09-09T08:30:37;10.00;;;2.30;;
45049;SDS011;61798;48.048;-1.928;2022-09-09T08:32:45;9.52;;;2.28;;
45049;SDS011;61798;48.048;-1.928;2022-09-09T08:34:51;12.25;;;2.08;;
45049;SDS011;61798;48.048;-1.928;2022-09-09T08:36:58;18.95;;;2.55;;
45049;SDS011;61798;48.048;-1.928;2022-09-09T08:39:05;10.90;;;1.95;;
45049;SDS011;61798;48.048;-1.928;2022-09-09T08:43:47;11.45;;;1.98;;
45049;SDS011;61798;48.048;-1.928;2022-09-09T08:46:11;10.20;;;2.17;;
45049;SDS011;61798;48.048;-1.928;2022-09-09T08:49:04;13.60;;;2.05;;
45049;SDS011;61798;48.048;-1.928;2022-09-09T08:51:54;11.43;;;2.90;;
45049;SDS011;61798;48.048;-1.928;2022-09-09T08:54:03;12.82;;;2.78;;
45049;SDS011;61798;48.048;-1.928;2022-09-09T08:56:13;13.25;;;2.22;;
45049;SDS011;61798;48.048;-1.928;2022-09-09T08:58:28;15.18;;;2.42;;
45049;SDS011;61798;48.048;-1.928;2022-09-09T09:03:35;10.65;;;1.65;;
45049;SDS011;61798;48.048;-1.928;2022-09-09T09:11:12;10.15;;;2.15;;
45049;SDS011;61798;48.048;-1.928;2022-09-09T09:13:33;9.43;;;1.88;;
45049;SDS011;61798;48.048;-1.928;2022-09-09T09:15:55;11.70;;;1.80;;
45049;SDS011;61798;48.048;-1.928;2022-09-09T09:18:28;9.93;;;1.98;;
45049;SDS011;61798;48.048;-1.928;2022-09-09T09:20:42;7.93;;;1.77;;
45049;SDS011;61798;48.048;-1.928;2022-09-09T09:23:18;11.57;;;2.85;;
45049;SDS011;61798;48.048;-1.928;2022-09-09T09:25:44;11.50;;;2.45;;
45049;SDS011;61798;48.048;-1.928;2022-09-09T09:28:07;10.75;;;2.08;;
45049;SDS011;61798;48.048;-1.928;2022-09-09T09:30:25;7.90;;;1.95;;
45049;SDS011;61798;48.048;-1.928;2022-09-09T09:32:38;9.55;;;2.05;;
45049;SDS011;61798;48.048;-1.928;2022-09-09T09:35:06;8.98;;;1.77;;
45049;SDS011;61798;48.048;-1.928;2022-09-09T09:37:28;7.50;;;2.15;;
45049;SDS011;61798;48.048;-1.928;2022-09-09T09:39:42;8.95;;;1.83;;
45049;SDS011;61798;48.048;-1.928;2022-09-09T09:41:50;11.88;;;2.30;;
45049;SDS011;61798;48.048;-1.928;2022-09-09T09:43:57;14.27;;;2.88;;
45049;SDS011;61798;48.048;-1.928;2022-09-09T09:46:19;12.07;;;3.00;;
45049;SDS011;61798;48.048;-1.928;2022-09-09T09:48:34;9.43;;;2.38;;
45049;SDS011;61798;48.048;-1.928;2022-09-09T09:50:54;10.05;;;1.50;;
45049;SDS011;61798;48.048;-1.928;2022-09-09T09:56:25;7.35;;;1.58;;
45049;SDS011;61798;48.048;-1.928;2022-09-09T09:58:37;10.20;;;1.73;;
45049;SDS011;61798;48.048;-1.928;2022-09-09T10:01:18;8.93;;;2.00;;
45049;SDS011;61798;48.048;-1.928;2022-09-09T10:03:53;11.65;;;2.33;;
45049;SDS011;61798;48.048;-1.928;2022-09-09T10:06:04;12.57;;;2.30;;
45049;SDS011;61798;48.048;-1.928;2022-09-09T10:08:15;10.25;;;2.08;;
45049;SDS011;61798;48.048;-1.928;2022-09-09T10:10:25;9.88;;;1.83;;
45049;SDS011;61798;48.048;-1.928;2022-09-09T10:15:48;7.03;;;1.73;;
45049;SDS011;61798;48.048;-1.928;2022-09-09T10:18:12;6.07;;;1.50;;
45049;SDS011;61798;48.048;-1.928;2022-09-09T10:20:52;7.90;;;1.67;;
45049;SDS011;61798;48.048;-1.928;2022-09-09T10:23:58;7.85;;;1.80;;
45049;SDS011;61798;48.048;-1.928;2022-09-09T10:25:41;4.78;;;1.42;;
45049;SDS011;61798;48.048;-1.928;2022-09-09T10:40:58;5.57;;;1.40;;
45049;SDS011;61798;48.048;-1.928;2022-09-09T10:45:57;8.07;;;1.42;;
45049;SDS011;61798;48.048;-1.928;2022-09-09T10:48:30;7.97;;;1.90;;
45049;SDS011;61798;48.048;-1.928;2022-09-09T10:55:59;5.63;;;1.55;;
45049;SDS011;61798;48.048;-1.928;2022-09-09T10:58:18;6.78;;;1.38;;
45049;SDS011;61798;48.048;-1.928;2022-09-09T11:00:45;10.38;;;1.42;;
45049;SDS011;61798;48.048;-1.928;2022-09-09T11:02:58;7.78;;;1.73;;
45049;SDS011;61798;48.048;-1.928;2022-09-09T11:07:44;6.57;;;1.77;;
45049;SDS011;61798;48.048;-1.928;2022-09-09T11:10:01;12.95;;;1.42;;
45049;SDS011;61798;48.048;-1.928;2022-09-09T11:12:15;8.52;;;1.42;;
45049;SDS011;61798;48.048;-1.928;2022-09-09T11:17:00;6.80;;;1.50;;
45049;SDS011;61798;48.048;-1.928;2022-09-09T11:19:13;5.75;;;1.20;;
45049;SDS011;61798;48.048;-1.928;2022-09-09T11:21:32;8.35;;;1.52;;
45049;SDS011;61798;48.048;-1.928;2022-09-09T11:23:45;9.00;;;1.50;;
45049;SDS011;61798;48.048;-1.928;2022-09-09T11:25:58;6.63;;;1.85;;
45049;SDS011;61798;48.048;-1.928;2022-09-09T11:31:00;7.68;;;1.55;;
45049;SDS011;61798;48.048;-1.928;2022-09-09T11:36:13;6.63;;;1.30;;
45049;SDS011;61798;48.048;-1.928;2022-09-09T11:41:01;5.72;;;1.63;;
45049;SDS011;61798;48.048;-1.928;2022-09-09T11:43:13;5.68;;;1.35;;
45049;SDS011;61798;48.048;-1.928;2022-09-09T11:45:24;5.30;;;1.50;;
45049;SDS011;61798;48.048;-1.928;2022-09-09T11:47:34;8.35;;;1.52;;
45049;SDS011;61798;48.048;-1.928;2022-09-09T11:49:43;12.50;;;1.73;;
45049;SDS011;61798;48.048;-1.928;2022-09-09T11:51:52;7.35;;;1.92;;
45049;SDS011;61798;48.048;-1.928;2022-09-09T11:53:59;7.10;;;1.42;;
45049;SDS011;61798;48.048;-1.928;2022-09-09T11:56:09;6.05;;;1.45;;
45049;SDS011;61798;48.048;-1.928;2022-09-09T11:58:21;8.18;;;1.67;;
45049;SDS011;61798;48.048;-1.928;2022-09-09T12:00:47;5.22;;;1.75;;
45049;SDS011;61798;48.048;-1.928;2022-09-09T12:02:56;4.53;;;1.20;;
45049;SDS011;61798;48.048;-1.928;2022-09-09T12:05:07;5.03;;;1.85;;
45049;SDS011;61798;48.048;-1.928;2022-09-09T12:07:23;5.95;;;1.88;;
45049;SDS011;61798;48.048;-1.928;2022-09-09T12:12:46;6.53;;;1.27;;
45049;SDS011;61798;48.048;-1.928;2022-09-09T12:17:23;6.35;;;1.60;;
45049;SDS011;61798;48.048;-1.928;2022-09-09T12:19:35;4.50;;;1.10;;
45049;SDS011;61798;48.048;-1.928;2022-09-09T12:24:12;4.20;;;1.10;;
45049;SDS011;61798;48.048;-1.928;2022-09-09T12:26:43;4.68;;;1.00;;
45049;SDS011;61798;48.048;-1.928;2022-09-09T12:29:08;6.53;;;1.65;;
45049;SDS011;61798;48.048;-1.928;2022-09-09T12:31:34;6.10;;;1.70;;
45049;SDS011;61798;48.048;-1.928;2022-09-09T12:33:47;7.78;;;1.33;;
45049;SDS011;61798;48.048;-1.928;2022-09-09T12:35:55;6.07;;;0.98;;
45049;SDS011;61798;48.048;-1.928;2022-09-09T12:38:04;6.47;;;1.10;;
45049;SDS011;61798;48.048;-1.928;2022-09-09T12:40:27;3.45;;;1.00;;
45049;SDS011;61798;48.048;-1.928;2022-09-09T12:42:41;3.70;;;1.20;;
45049;SDS011;61798;48.048;-1.928;2022-09-09T12:44:52;4.10;;;0.68;;
45049;SDS011;61798;48.048;-1.928;2022-09-09T12:47:03;5.47;;;1.50;;
45049;SDS011;61798;48.048;-1.928;2022-09-09T12:51:40;6.60;;;1.40;;
45049;SDS011;61798;48.048;-1.928;2022-09-09T12:53:48;4.55;;;0.85;;
45049;SDS011;61798;48.048;-1.928;2022-09-09T12:55:56;7.18;;;1.23;;
45049;SDS011;61798;48.048;-1.928;2022-09-09T12:58:11;4.90;;;1.35;;
45049;SDS011;61798;48.048;-1.928;2022-09-09T13:00:23;4.68;;;1.23;;
45049;SDS011;61798;48.048;-1.928;2022-09-09T13:02:31;7.88;;;1.20;;
45049;SDS011;61798;48.048;-1.928;2022-09-09T13:04:38;5.35;;;0.93;;
45049;SDS011;61798;48.048;-1.928;2022-09-09T13:06:46;5.15;;;1.00;;
45049;SDS011;61798;48.048;-1.928;2022-09-09T13:08:53;3.72;;;1.17;;
45049;SDS011;61798;48.048;-1.928;2022-09-09T13:11:03;4.45;;;1.00;;
45049;SDS011;61798;48.048;-1.928;2022-09-09T13:13:15;3.33;;;1.10;;
45049;SDS011;61798;48.048;-1.928;2022-09-09T13:15:27;12.93;;;2.30;;
45049;SDS011;61798;48.048;-1.928;2022-09-09T13:17:36;66.20;;;4.07;;
45049;SDS011;61798;48.048;-1.928;2022-09-09T13:19:43;45.47;;;3.47;;
45049;SDS011;61798;48.048;-1.928;2022-09-09T13:21:51;81.00;;;4.82;;
45049;SDS011;61798;48.048;-1.928;2022-09-09T13:23:58;69.60;;;4.60;;
45049;SDS011;61798;48.048;-1.928;2022-09-09T13:28:34;42.10;;;3.47;;
45049;SDS011;61798;48.048;-1.928;2022-09-09T13:30:41;30.08;;;2.42;;
45049;SDS011;61798;48.048;-1.928;2022-09-09T13:33:06;42.47;;;2.80;;
45049;SDS011;61798;48.048;-1.928;2022-09-09T13:35:24;19.25;;;1.63;;
45049;SDS011;61798;48.048;-1.928;2022-09-09T13:37:37;7.15;;;1.38;;
45049;SDS011;61798;48.048;-1.928;2022-09-09T13:39:51;61.22;;;3.60;;
45049;SDS011;61798;48.048;-1.928;2022-09-09T13:41:59;11.27;;;1.05;;
45049;SDS011;61798;48.048;-1.928;2022-09-09T13:44:14;35.70;;;2.72;;
45049;SDS011;61798;48.048;-1.928;2022-09-09T13:46:38;39.42;;;3.58;;
45049;SDS011;61798;48.048;-1.928;2022-09-09T13:48:56;16.55;;;1.67;;
45049;SDS011;61798;48.048;-1.928;2022-09-09T13:51:21;2.50;;;0.88;;
45049;SDS011;61798;48.048;-1.928;2022-09-09T13:53:38;21.08;;;1.90;;
45049;SDS011;61798;48.048;-1.928;2022-09-09T13:55:45;5.43;;;1.17;;
45049;SDS011;61798;48.048;-1.928;2022-09-09T13:57:55;6.57;;;1.38;;
45049;SDS011;61798;48.048;-1.928;2022-09-09T14:00:06;5.05;;;1.05;;
45049;SDS011;61798;48.048;-1.928;2022-09-09T14:02:20;4.15;;;0.88;;
45049;SDS011;61798;48.048;-1.928;2022-09-09T14:04:29;4.72;;;1.00;;
45049;SDS011;61798;48.048;-1.928;2022-09-09T14:06:37;3.85;;;1.00;;
45049;SDS011;61798;48.048;-1.928;2022-09-09T14:08:46;6.25;;;1.15;;
45049;SDS011;61798;48.048;-1.928;2022-09-09T14:10:55;59.22;;;2.67;;
45049;SDS011;61798;48.048;-1.928;2022-09-09T14:13:04;27.08;;;3.72;;
45049;SDS011;61798;48.048;-1.928;2022-09-09T14:15:12;43.33;;;3.42;;
45049;SDS011;61798;48.048;-1.928;2022-09-09T14:17:19;7.60;;;1.05;;
45049;SDS011;61798;48.048;-1.928;2022-09-09T14:19:26;43.28;;;3.10;;
45049;SDS011;61798;48.048;-1.928;2022-09-09T14:21:33;26.40;;;3.28;;
45049;SDS011;61798;48.048;-1.928;2022-09-09T14:23:40;29.80;;;3.03;;
45049;SDS011;61798;48.048;-1.928;2022-09-09T14:25:47;10.10;;;1.65;;
45049;SDS011;61798;48.048;-1.928;2022-09-09T14:27:55;12.25;;;1.30;;
45049;SDS011;61798;48.048;-1.928;2022-09-09T14:30:03;77.05;;;4.28;;
45049;SDS011;61798;48.048;-1.928;2022-09-09T14:32:10;10.57;;;1.85;;
45049;SDS011;61798;48.048;-1.928;2022-09-09T14:34:18;15.23;;;1.45;;
45049;SDS011;61798;48.048;-1.928;2022-09-09T14:36:24;4.82;;;1.13;;
45049;SDS011;61798;48.048;-1.928;2022-09-09T14:38:31;8.00;;;1.17;;
45049;SDS011;61798;48.048;-1.928;2022-09-09T14:40:39;4.05;;;1.08;;
45049;SDS011;61798;48.048;-1.928;2022-09-09T14:42:45;7.13;;;1.27;;